createdAt,value
2022-08-05T00:01:27.655Z,5.78
2022-08-05T00:03:57.051Z,6.85
2022-08-05T00:06:32.187Z,7.00
2022-08-05T00:09:01.092Z,6.90
2022-08-05T00:11:34.784Z,5.88
2022-08-05T00:14:12.878Z,6.20
2022-08-05T00:16:53.015Z,5.97
2022-08-05T00:19:24.858Z,7.07
2022-08-05T00:22:01.311Z,5.97
2022-08-05T00:24:30.949Z,6.35
2022-08-05T00:27:04.824Z,6.20
2022-08-05T00:29:38.183Z,5.90
2022-08-05T00:32:13.476Z,6.50
2022-08-05T00:35:03.620Z,5.97
2022-08-05T00:37:51.240Z,6.30
2022-08-05T00:40:28.056Z,6.70
2022-08-05T00:43:00.779Z,6.78
2022-08-05T00:45:42.783Z,6.55
2022-08-05T00:48:16.242Z,7.68
2022-08-05T00:50:46.011Z,7.22
2022-08-05T00:54:01.003Z,7.25
2022-08-05T00:56:04.370Z,5.82
2022-08-05T00:58:31.325Z,7.00
2022-08-05T01:00:58.318Z,7.20
2022-08-05T01:03:31.037Z,7.32
2022-08-05T01:06:00.428Z,7.35
2022-08-05T01:08:42.202Z,6.65
2022-08-05T01:11:22.484Z,6.88
2022-08-05T01:14:15.322Z,6.40
2022-08-05T01:16:44.283Z,7.90
2022-08-05T01:19:36.683Z,6.47
2022-08-05T01:22:42.949Z,7.53
2022-08-05T01:25:53.368Z,7.50
2022-08-05T01:28:25.152Z,7.55
2022-08-05T01:31:03.010Z,8.55
2022-08-05T01:33:38.188Z,7.28
2022-08-05T01:36:16.152Z,8.38
2022-08-05T01:38:46.050Z,7.65
2022-08-05T01:41:21.747Z,7.20
2022-08-05T01:43:51.010Z,9.00
2022-08-05T01:46:42.599Z,9.10
2022-08-05T01:51:52.081Z,9.27
2022-08-05T01:54:20.536Z,8.88
2022-08-05T01:58:11.343Z,9.50
2022-08-05T01:59:47.162Z,10.27
2022-08-05T02:02:16.008Z,9.55
2022-08-05T02:04:46.125Z,9.75
2022-08-05T02:07:22.423Z,10.38
2022-08-05T02:09:53.013Z,9.90
2022-08-05T02:15:34.686Z,9.90
2022-08-05T02:18:31.228Z,10.38
2022-08-05T02:21:19.436Z,10.10
2022-08-05T02:23:54.960Z,10.63
2022-08-05T02:26:30.694Z,9.98
2022-08-05T02:28:58.529Z,11.13
2022-08-05T02:31:29.503Z,10.45
2022-08-05T02:34:09.195Z,10.93
2022-08-05T02:36:41.404Z,10.75
2022-08-05T02:39:10.287Z,11.57
2022-08-05T02:41:58.034Z,10.40
2022-08-05T02:44:27.154Z,11.18
2022-08-05T02:47:00.269Z,10.77
2022-08-05T02:49:36.195Z,11.90
2022-08-05T02:52:07.948Z,10.23
2022-08-05T02:54:41.510Z,11.07
2022-08-05T02:58:11.320Z,12.65
2022-08-05T03:00:01.278Z,11.48
2022-08-05T03:02:36.655Z,14.40
2022-08-05T03:05:05.043Z,10.80
2022-08-05T03:07:59.272Z,11.45
2022-08-05T03:10:21.990Z,11.70
2022-08-05T03:12:54.063Z,11.48
2022-08-05T03:15:23.431Z,10.35
2022-08-05T03:17:55.764Z,9.60
2022-08-05T03:20:23.642Z,9.93
2022-08-05T03:22:52.331Z,10.38
2022-08-05T03:25:34.055Z,11.02
2022-08-05T03:28:10.671Z,11.80
2022-08-05T03:30:42.294Z,10.95
2022-08-05T03:33:09.864Z,11.82
2022-08-05T03:35:40.715Z,10.93
2022-08-05T03:38:12.302Z,10.65
2022-08-05T03:40:47.233Z,10.93
2022-08-05T03:44:09.068Z,11.70
2022-08-05T03:46:05.054Z,11.10
2022-08-05T03:48:35.445Z,13.50
2022-08-05T03:52:38.008Z,13.75
2022-08-05T03:55:52.078Z,13.60
2022-08-05T03:56:54.280Z,11.95
2022-08-05T03:59:46.731Z,12.30
2022-08-05T04:02:37.952Z,13.15
2022-08-05T04:05:09.834Z,14.57
2022-08-05T04:07:58.261Z,14.75
2022-08-05T04:10:33.289Z,15.38
2022-08-05T04:13:06.885Z,17.17
2022-08-05T04:15:36.184Z,13.23
2022-08-05T04:18:09.414Z,14.50
2022-08-05T04:20:36.939Z,15.25
2022-08-05T04:23:04.498Z,13.45
2022-08-05T04:25:57.573Z,17.13
2022-08-05T04:28:30.911Z,15.52
2022-08-05T04:31:01.037Z,14.52
2022-08-05T04:34:19.302Z,14.87
2022-08-05T04:36:44.714Z,14.40
2022-08-05T04:39:02.974Z,13.95
2022-08-05T04:41:37.739Z,14.75
2022-08-05T04:44:09.266Z,14.43
2022-08-05T04:46:37.631Z,14.65
2022-08-05T04:49:12.197Z,14.90
2022-08-05T04:51:45.056Z,15.73
2022-08-05T04:54:12.557Z,14.75
2022-08-05T04:56:39.589Z,15.43
2022-08-05T04:59:21.596Z,16.70
2022-08-05T05:02:07.399Z,16.15
2022-08-05T05:04:38.291Z,14.75
2022-08-05T05:07:11.632Z,17.70
2022-08-05T05:09:43.032Z,15.60
2022-08-05T05:12:11.699Z,18.15
2022-08-05T05:14:38.731Z,15.15
2022-08-05T05:17:21.171Z,16.52
2022-08-05T05:19:52.838Z,15.50
2022-08-05T05:22:24.617Z,14.60
2022-08-05T05:24:58.433Z,15.27
2022-08-05T05:27:41.707Z,15.73
2022-08-05T05:30:30.449Z,15.40
2022-08-05T05:33:08.953Z,14.88
2022-08-05T05:35:44.263Z,13.73
2022-08-05T05:38:13.514Z,13.68
2022-08-05T05:40:48.383Z,14.30
2022-08-05T05:43:22.291Z,12.65
2022-08-05T05:46:10.658Z,13.13
2022-08-05T05:48:44.262Z,11.85
2022-08-05T05:51:15.636Z,12.82
2022-08-05T05:53:54.446Z,13.00
2022-08-05T05:56:32.347Z,12.13
2022-08-05T05:59:07.757Z,12.02
2022-08-05T06:01:40.222Z,11.68
2022-08-05T06:04:11.794Z,13.60
2022-08-05T06:06:41.770Z,13.30
2022-08-05T06:09:09.359Z,11.85
2022-08-05T06:12:01.696Z,13.25
2022-08-05T06:14:31.149Z,13.00
2022-08-05T06:16:58.758Z,12.90
2022-08-05T06:19:34.233Z,13.00
2022-08-05T06:22:03.499Z,13.25
2022-08-05T06:24:30.851Z,12.25
2022-08-05T06:26:58.192Z,11.90
2022-08-05T06:29:48.978Z,11.73
2022-08-05T06:32:21.378Z,13.45
2022-08-05T06:34:56.379Z,12.73
2022-08-05T06:37:39.431Z,12.55
2022-08-05T06:40:12.449Z,13.13
2022-08-05T06:42:40.765Z,12.68
2022-08-05T06:45:09.366Z,12.40
2022-08-05T06:48:44.248Z,11.68
2022-08-05T06:50:24.935Z,12.65
2022-08-05T06:53:03.962Z,11.32
2022-08-05T06:55:42.004Z,10.77
2022-08-05T06:58:30.019Z,12.55
2022-08-05T07:01:01.170Z,11.38
2022-08-05T07:03:32.884Z,11.55
2022-08-05T07:06:05.894Z,9.63
2022-08-05T07:08:47.938Z,10.02
2022-08-05T07:11:22.529Z,10.57
2022-08-05T07:14:20.010Z,9.57
2022-08-05T07:18:00.997Z,9.73
2022-08-05T07:20:22.999Z,8.15
2022-08-05T07:22:29.134Z,8.77
2022-08-05T07:24:59.402Z,8.52
2022-08-05T07:27:27.745Z,7.17
2022-08-05T07:30:24.715Z,7.97
2022-08-05T07:32:57.586Z,7.85
2022-08-05T07:36:02.116Z,7.28
2022-08-05T07:38:12.454Z,6.78
2022-08-05T07:41:00.325Z,7.75
2022-08-05T07:43:31.595Z,7.95
2022-08-05T07:49:02.655Z,8.15
2022-08-05T07:51:23.557Z,7.65
2022-08-05T07:54:03.383Z,7.25
2022-08-05T07:57:00.611Z,7.20
2022-08-05T07:59:17.256Z,6.65
2022-08-05T08:01:52.247Z,6.35
2022-08-05T08:04:37.386Z,7.70
2022-08-05T08:07:05.523Z,7.63
2022-08-05T08:09:34.840Z,6.97
2022-08-05T08:12:11.000Z,5.63
2022-08-05T08:14:46.698Z,5.95
2022-08-05T08:17:16.201Z,6.75
2022-08-05T08:20:21.419Z,6.70
2022-08-05T08:22:32.325Z,5.28
2022-08-05T08:25:03.200Z,6.55
2022-08-05T08:27:44.788Z,6.00
2022-08-05T08:30:30.074Z,6.68
2022-08-05T08:33:08.243Z,5.22
2022-08-05T08:35:40.869Z,6.25
2022-08-05T08:38:11.603Z,5.80
2022-08-05T08:40:50.504Z,7.07
2022-08-05T08:44:56.441Z,7.90
2022-08-05T08:46:06.764Z,7.45
2022-08-05T08:49:02.969Z,8.32
2022-08-05T08:52:03.127Z,8.68
2022-08-05T08:54:19.769Z,8.93
2022-08-05T08:56:47.923Z,8.05
2022-08-05T08:59:19.787Z,8.43
2022-08-05T09:01:57.492Z,7.97
2022-08-05T09:04:30.492Z,7.88
2022-08-05T09:06:58.459Z,7.38
2022-08-05T09:09:34.617Z,7.97
2022-08-05T09:12:20.246Z,8.40
2022-08-05T09:14:58.978Z,7.63
2022-08-05T09:17:40.909Z,8.23
2022-08-05T09:20:10.802Z,7.63
2022-08-05T09:23:05.172Z,9.00
2022-08-05T09:26:03.069Z,8.05
2022-08-05T09:28:31.922Z,8.40
2022-08-05T09:31:43.687Z,7.07
2022-08-05T09:34:09.646Z,9.15
2022-08-05T09:36:55.300Z,8.50
2022-08-05T09:39:39.465Z,8.65
2022-08-05T09:42:17.473Z,8.95
2022-08-05T09:44:52.427Z,8.23
2022-08-05T09:47:29.476Z,7.90
2022-08-05T09:50:13.768Z,9.35
2022-08-05T09:52:45.812Z,9.70
2022-08-05T09:55:57.872Z,9.10
2022-08-05T09:58:00.381Z,9.30
2022-08-05T10:00:30.506Z,10.07
2022-08-05T10:02:58.366Z,10.75
2022-08-05T10:05:28.671Z,10.60
2022-08-05T10:08:36.876Z,10.32
2022-08-05T10:10:50.198Z,9.93
2022-08-05T10:13:54.768Z,11.52
2022-08-05T10:16:37.903Z,10.13
2022-08-05T10:19:23.468Z,9.50
2022-08-05T10:21:51.207Z,9.73
2022-08-05T10:24:19.977Z,9.55
2022-08-05T10:26:54.870Z,9.30
2022-08-05T10:30:07.180Z,7.28
2022-08-05T10:32:51.580Z,8.23
2022-08-05T10:35:01.406Z,8.75
2022-08-05T10:37:40.322Z,7.78
2022-08-05T10:40:58.085Z,8.38
2022-08-05T10:43:45.988Z,8.30
2022-08-05T10:46:17.806Z,7.70
2022-08-05T10:48:57.261Z,7.88
2022-08-05T10:51:28.799Z,7.45
2022-08-05T10:54:28.444Z,7.43
2022-08-05T10:56:52.918Z,7.95
2022-08-05T11:00:02.075Z,8.45
2022-08-05T11:02:38.247Z,8.73
2022-08-05T11:05:10.359Z,7.35
2022-08-05T11:08:01.322Z,8.10
2022-08-05T11:10:33.464Z,7.75
2022-08-05T11:13:01.297Z,8.40
2022-08-05T11:16:01.032Z,8.25
2022-08-05T11:18:34.301Z,8.93
2022-08-05T11:21:06.288Z,7.93
2022-08-05T11:24:05.094Z,8.63
2022-08-05T11:26:43.364Z,8.38
2022-08-05T11:29:42.718Z,8.27
2022-08-05T11:32:27.304Z,8.52
2022-08-05T11:34:55.333Z,8.40
2022-08-05T11:38:28.356Z,8.55
2022-08-05T11:41:34.480Z,7.82
2022-08-05T11:44:40.576Z,8.35
2022-08-05T11:47:12.168Z,6.50
2022-08-05T11:49:43.444Z,6.80
2022-08-05T11:52:29.079Z,7.63
2022-08-05T11:54:58.816Z,6.13
2022-08-05T11:57:30.599Z,6.85
2022-08-05T12:00:29.107Z,6.50
2022-08-05T12:02:57.562Z,5.88
2022-08-05T12:05:36.046Z,6.28
2022-08-05T12:08:09.997Z,6.60
2022-08-05T12:10:45.532Z,5.20
2022-08-05T12:13:47.318Z,5.07
2022-08-05T12:16:17.484Z,5.18
2022-08-05T12:18:49.593Z,6.65
2022-08-05T12:21:41.927Z,4.85
2022-08-05T12:24:14.387Z,5.63
2022-08-05T12:26:44.547Z,5.47
2022-08-05T12:29:26.420Z,5.32
2022-08-05T12:31:58.094Z,5.90
2022-08-05T12:34:31.841Z,4.50
2022-08-05T12:37:07.491Z,5.07
2022-08-05T12:39:38.579Z,4.55
2022-08-05T12:42:14.484Z,4.57
2022-08-05T12:44:44.565Z,5.05
2022-08-05T12:47:12.426Z,4.33
2022-08-05T12:50:04.492Z,3.67
2022-08-05T12:52:38.641Z,4.13
2022-08-05T12:55:26.920Z,4.82
2022-08-05T12:58:49.052Z,4.40
2022-08-05T13:02:02.930Z,4.70
2022-08-05T13:03:41.749Z,4.18
2022-08-05T13:06:17.134Z,4.22
2022-08-05T13:08:51.398Z,4.47
2022-08-05T13:11:59.813Z,3.72
2022-08-05T13:14:36.583Z,3.80
2022-08-05T13:17:32.071Z,3.53
2022-08-05T13:20:23.210Z,4.57
2022-08-05T13:22:53.288Z,4.72
2022-08-05T13:25:22.143Z,4.35
2022-08-05T13:28:07.905Z,4.57
2022-08-05T13:30:38.870Z,3.85
2022-08-05T13:33:06.208Z,3.83
2022-08-05T13:35:47.543Z,3.67
2022-08-05T13:38:30.473Z,3.42
2022-08-05T13:41:01.312Z,3.60
2022-08-05T13:43:44.330Z,3.58
2022-08-05T13:46:16.109Z,4.05
2022-08-05T13:48:58.742Z,3.38
2022-08-05T13:51:36.416Z,3.45
2022-08-05T13:54:12.378Z,3.88
2022-08-05T13:56:45.576Z,4.15
2022-08-05T13:59:24.106Z,3.88
2022-08-05T14:01:58.063Z,4.25
2022-08-05T14:04:51.585Z,4.50
2022-08-05T14:07:59.871Z,4.28
2022-08-05T14:10:28.981Z,4.65
2022-08-05T14:12:58.005Z,6.20
2022-08-05T14:16:08.566Z,5.85
2022-08-05T14:18:17.639Z,7.32
2022-08-05T14:20:55.074Z,5.13
2022-08-05T14:23:25.236Z,5.70
2022-08-05T14:25:58.094Z,5.35
2022-08-05T14:28:27.685Z,4.93
2022-08-05T14:30:56.021Z,4.95
2022-08-05T14:33:23.695Z,5.63
2022-08-05T14:35:54.036Z,4.95
2022-08-05T14:38:32.911Z,6.55
2022-08-05T14:41:06.966Z,6.55
2022-08-05T14:43:59.160Z,6.15
2022-08-05T14:46:29.134Z,5.55
2022-08-05T14:48:59.674Z,5.93
2022-08-05T14:51:34.739Z,5.82
2022-08-05T14:54:30.097Z,6.93
2022-08-05T14:56:48.851Z,7.07
2022-08-05T14:59:18.353Z,7.07
2022-08-05T15:04:20.769Z,6.90
2022-08-05T15:06:50.451Z,8.50
2022-08-05T15:09:51.331Z,7.13
2022-08-05T15:12:11.611Z,7.68
2022-08-05T15:14:49.587Z,7.60
2022-08-05T15:17:45.680Z,6.95
2022-08-05T15:20:18.371Z,7.07
2022-08-05T15:22:54.400Z,6.43
2022-08-05T15:25:51.667Z,6.35
2022-08-05T15:28:14.360Z,6.32
2022-08-05T15:30:43.664Z,5.63
2022-08-05T15:33:12.869Z,5.50
2022-08-05T15:35:59.803Z,7.55
2022-08-05T15:38:35.511Z,6.63
2022-08-05T15:41:22.583Z,5.88
2022-08-05T15:43:50.867Z,7.07
2022-08-05T15:46:20.627Z,5.95
2022-08-05T15:48:52.511Z,5.65
2022-08-05T15:52:03.608Z,6.30
2022-08-05T15:54:16.207Z,5.85
2022-08-05T15:56:43.509Z,6.32
2022-08-05T15:59:21.839Z,6.95
2022-08-05T16:01:53.087Z,5.30
2022-08-05T16:04:25.463Z,5.65
2022-08-05T16:06:56.083Z,6.38
2022-08-05T16:09:24.129Z,5.82
2022-08-05T16:11:53.717Z,7.28
2022-08-05T16:14:21.836Z,5.95
2022-08-05T16:16:49.497Z,7.68
2022-08-05T16:19:25.475Z,7.50
2022-08-05T16:22:03.784Z,8.40
2022-08-05T16:24:39.507Z,7.80
2022-08-05T16:27:09.150Z,8.48
2022-08-05T16:29:37.123Z,7.88
2022-08-05T16:32:09.592Z,7.85
2022-08-05T16:34:39.229Z,7.65
2022-08-05T16:38:01.914Z,7.93
2022-08-05T16:40:05.267Z,8.18
2022-08-05T16:42:34.555Z,8.13
2022-08-05T16:45:02.019Z,8.20
2022-08-05T16:47:54.304Z,8.35
2022-08-05T16:50:24.658Z,8.60
2022-08-05T16:52:51.576Z,8.98
2022-08-05T16:55:20.406Z,8.95
2022-08-05T16:57:53.461Z,9.73
2022-08-05T17:00:35.119Z,9.40
2022-08-05T17:03:09.120Z,8.00
2022-08-05T17:05:42.432Z,8.30
2022-08-05T17:08:09.405Z,8.10
2022-08-05T17:10:40.262Z,7.70
2022-08-05T17:13:16.982Z,8.98
2022-08-05T17:15:49.741Z,8.40
2022-08-05T17:18:19.892Z,8.93
2022-08-05T17:20:47.658Z,9.38
2022-08-05T17:24:05.811Z,9.98
2022-08-05T17:26:03.583Z,9.63
2022-08-05T17:28:31.336Z,9.43
2022-08-05T17:30:58.184Z,12.90
2022-08-05T17:33:25.433Z,15.18
2022-08-05T17:36:07.877Z,9.68
2022-08-05T17:38:37.183Z,10.50
2022-08-05T17:41:06.976Z,10.27
2022-08-05T17:43:54.374Z,11.13
2022-08-05T17:46:21.369Z,10.10
2022-08-05T17:48:48.309Z,10.98
2022-08-05T17:51:21.909Z,10.70
2022-08-05T17:53:50.826Z,10.90
2022-08-05T17:56:21.564Z,10.20
2022-08-05T17:58:49.922Z,11.50
2022-08-05T18:01:18.382Z,11.75
2022-08-05T18:04:04.051Z,11.65
2022-08-05T18:06:32.517Z,13.23
2022-08-05T18:08:59.587Z,12.93
2022-08-05T18:11:32.915Z,12.65
2022-08-05T18:14:07.103Z,12.52
2022-08-05T18:16:35.577Z,12.88
2022-08-05T18:19:13.801Z,14.00
2022-08-05T18:22:08.611Z,11.55
2022-08-05T18:24:28.163Z,12.43
2022-08-05T18:26:55.110Z,13.38
2022-08-05T18:29:40.381Z,10.70
2022-08-05T18:32:12.647Z,11.90
2022-08-05T18:34:41.500Z,11.55
2022-08-05T18:37:12.169Z,13.02
2022-08-05T18:40:31.127Z,12.70
2022-08-05T18:42:27.038Z,11.50
2022-08-05T18:44:56.238Z,12.88
2022-08-05T18:47:26.717Z,13.10
2022-08-05T18:50:13.189Z,13.85
2022-08-05T18:52:51.236Z,13.73
2022-08-05T18:55:20.292Z,13.93
2022-08-05T18:57:53.401Z,15.88
2022-08-05T19:00:28.704Z,15.68
2022-08-05T19:02:56.698Z,14.20
2022-08-05T19:06:13.002Z,14.25
2022-08-05T19:08:13.462Z,8.68
2022-08-05T19:10:40.804Z,6.25
2022-08-05T19:13:07.751Z,5.30
2022-08-05T19:15:58.045Z,4.00
2022-08-05T19:18:26.920Z,3.40
2022-08-05T19:20:54.529Z,3.33
2022-08-05T19:24:05.377Z,3.58
2022-08-05T19:26:11.935Z,3.30
2022-08-05T19:28:43.234Z,3.13
2022-08-05T19:31:13.262Z,4.82
2022-08-05T19:33:48.631Z,5.43
2022-08-05T19:36:27.175Z,4.95
2022-08-05T19:39:00.798Z,4.43
2022-08-05T19:42:05.690Z,4.40
2022-08-05T19:44:16.362Z,5.03
2022-08-05T19:46:43.953Z,4.88
2022-08-05T19:49:12.492Z,4.55
2022-08-05T19:52:09.007Z,4.60
2022-08-05T19:54:32.854Z,5.07
2022-08-05T19:57:02.644Z,3.78
2022-08-05T19:59:55.178Z,5.13
2022-08-05T20:02:21.480Z,4.25
2022-08-05T20:04:50.215Z,4.53
2022-08-05T20:07:38.981Z,3.38
2022-08-05T20:10:13.526Z,3.35
2022-08-05T20:12:48.135Z,3.97
2022-08-05T20:15:22.981Z,3.20
2022-08-05T20:18:10.738Z,3.25
2022-08-05T20:20:56.578Z,3.75
2022-08-05T20:23:39.398Z,3.90
2022-08-05T20:26:15.986Z,2.97
2022-08-05T20:28:51.222Z,4.33
2022-08-05T20:31:28.364Z,4.18
2022-08-05T20:34:04.825Z,3.22
2022-08-05T20:36:31.759Z,3.28
2022-08-05T20:38:59.643Z,4.50
2022-08-05T20:41:44.309Z,3.63
2022-08-05T20:44:18.978Z,3.15
2022-08-05T20:46:57.831Z,3.22
2022-08-05T20:49:25.954Z,3.60
2022-08-05T20:51:54.590Z,3.65
2022-08-05T20:54:23.027Z,3.25
2022-08-05T20:56:53.005Z,3.00
2022-08-05T20:59:27.168Z,3.47
2022-08-05T21:02:07.713Z,3.53
2022-08-05T21:04:36.341Z,3.15
2022-08-05T21:07:04.708Z,2.83
2022-08-05T21:09:31.629Z,2.97
2022-08-05T21:12:08.245Z,2.85
2022-08-05T21:14:38.038Z,3.08
2022-08-05T21:17:05.908Z,2.80
2022-08-05T21:19:46.443Z,2.80
2022-08-05T21:22:23.490Z,3.40
2022-08-05T21:24:52.532Z,3.08
2022-08-05T21:27:24.984Z,2.67
2022-08-05T21:29:55.459Z,2.72
2022-08-05T21:32:27.677Z,2.40
2022-08-05T21:35:17.484Z,2.13
2022-08-05T21:37:52.768Z,2.67
2022-08-05T21:40:23.867Z,2.33
2022-08-05T21:42:53.545Z,2.35
2022-08-05T21:45:25.057Z,2.67
2022-08-05T21:48:08.669Z,2.63
2022-08-05T21:50:36.732Z,2.58
2022-08-05T21:53:16.205Z,2.55
2022-08-05T21:56:04.794Z,2.88
2022-08-05T21:58:32.211Z,2.90
2022-08-05T22:01:00.413Z,2.85
2022-08-05T22:03:52.405Z,3.38
2022-08-05T22:06:15.998Z,2.83
2022-08-05T22:08:50.544Z,2.50
2022-08-05T22:11:34.683Z,2.80
2022-08-05T22:14:33.836Z,2.38
2022-08-05T22:16:56.797Z,3.22
2022-08-05T22:20:02.180Z,2.65
2022-08-05T22:22:13.099Z,2.55
2022-08-05T22:25:00.346Z,1.80
2022-08-05T22:28:11.418Z,1.40
2022-08-05T22:30:35.839Z,1.42
2022-08-05T22:33:15.575Z,1.27
2022-08-05T22:35:48.976Z,0.90
2022-08-05T22:38:17.189Z,1.60
2022-08-05T22:40:49.336Z,1.73
2022-08-05T22:43:36.172Z,1.02
2022-08-05T22:46:12.256Z,1.02
2022-08-05T22:48:50.169Z,0.93
2022-08-05T22:51:23.203Z,0.80
2022-08-05T22:54:04.751Z,1.88
2022-08-05T22:56:32.307Z,1.40
2022-08-05T22:59:04.187Z,1.08
2022-08-05T23:02:03.985Z,1.25
2022-08-05T23:04:32.210Z,1.00
2022-08-05T23:06:59.316Z,0.88
2022-08-05T23:09:27.475Z,0.80
2022-08-05T23:12:13.249Z,0.63
2022-08-05T23:14:43.633Z,1.15
2022-08-05T23:17:34.315Z,0.80
2022-08-05T23:20:10.536Z,0.77
2022-08-05T23:25:51.216Z,0.70
2022-08-05T23:28:06.843Z,0.80
2022-08-05T23:33:21.928Z,0.90
2022-08-05T23:35:55.960Z,0.45
2022-08-05T23:38:26.020Z,0.88
2022-08-05T23:40:53.892Z,0.50
2022-08-05T23:43:25.408Z,0.85
2022-08-05T23:46:20.716Z,0.57
2022-08-05T23:49:01.171Z,0.57
2022-08-05T23:51:53.301Z,1.02
2022-08-05T23:54:25.225Z,0.93
2022-08-05T23:56:58.271Z,0.32
